Time;durP1;ratioP1;P1;durP2;ratioP2;P2;SDS_P1;SDS_P2;PMS_P1;PMS_P2;Temp;Humidity;BMP_temperature;BMP_pressure;BME280_temperature;BME280_humidity;BME280_pressure;Samples;Min_cycle;Max_cycle;Signal;HPM_P1;HPM_P2
2023/09/25 00:01:00;;;;;;;6.80;2.25;;;;;;;10.29;70.02;102570.59;5017477;28;20406;-76
2023/09/25 00:03:27;;;;;;;3.70;0.60;;;;;;;10.29;70.14;102565.38;5018207;28;21415;-75
2023/09/25 00:05:55;;;;;;;4.10;0.85;;;;;;;10.28;70.27;102561.00;5021234;28;20410;-75
2023/09/25 00:08:22;;;;;;;4.95;0.90;;;;;;;10.29;70.25;102562.75;5020876;28;20088;-76
2023/09/25 00:10:49;;;;;;;4.80;1.15;;;;;;;10.26;70.36;102554.84;5019012;28;20049;-75
2023/09/25 00:13:18;;;;;;;3.17;1.20;;;;;;;10.29;70.33;102565.38;5012153;28;20050;-75
2023/09/25 00:15:46;;;;;;;3.50;0.70;;;;;;;10.22;70.37;102545.25;5025108;28;20057;-84
2023/09/25 00:18:14;;;;;;;2.15;0.60;;;;;;;10.28;70.60;102561.88;5027630;28;20140;-84
2023/09/25 00:20:41;;;;;;;5.95;1.00;;;;;;;10.21;70.75;102551.31;5027626;28;20054;-85
2023/09/25 00:23:09;;;;;;;4.38;0.80;;;;;;;10.27;70.62;102565.31;5024995;28;20052;-84
2023/09/25 00:25:36;;;;;;;5.93;0.63;;;;;;;10.26;70.37;102557.47;5024167;28;20045;-85
2023/09/25 00:28:03;;;;;;;3.88;0.73;;;;;;;10.26;70.62;102567.91;5023393;28;20132;-84
2023/09/25 00:30:32;;;;;;;2.15;0.52;;;;;;;10.27;70.46;102567.06;5024993;28;20046;-84
2023/09/25 00:32:59;;;;;;;5.57;1.58;;;;;;;10.26;70.78;102578.34;5026204;28;20054;-85
2023/09/25 00:35:26;;;;;;;1.83;0.60;;;;;;;10.25;70.84;102571.38;5023985;28;20128;-78
2023/09/25 00:37:53;;;;;;;3.05;0.82;;;;;;;10.23;70.77;102568.75;5028067;28;20053;-78
2023/09/25 00:40:24;;;;;;;5.68;1.13;;;;;;;10.23;70.75;102571.34;5020846;28;20631;-78
2023/09/25 00:42:53;;;;;;;5.43;1.33;;;;;;;10.22;70.52;102571.34;5026918;28;20057;-78
2023/09/25 00:45:21;;;;;;;6.25;0.77;;;;;;;10.21;70.57;102569.59;5022772;28;20309;-78
2023/09/25 00:47:51;;;;;;;2.33;0.70;;;;;;;10.21;70.72;102566.97;5029427;28;20482;-78
2023/09/25 00:50:18;;;;;;;5.28;1.48;;;;;;;10.20;70.90;102565.22;5021996;28;20064;-80
2023/09/25 00:52:46;;;;;;;3.55;0.52;;;;;;;10.18;70.82;102570.41;5028896;28;20045;-78
2023/09/25 00:55:15;;;;;;;2.10;0.70;;;;;;;10.18;70.71;102569.53;5025113;28;20050;-78
2023/09/25 00:57:43;;;;;;;5.40;0.82;;;;;;;10.15;70.68;102570.38;5021820;28;20050;-78
2023/09/25 01:00:11;;;;;;;5.57;1.30;;;;;;;10.16;70.73;102587.81;5022096;28;20072;-78
2023/09/25 01:02:38;;;;;;;5.47;0.65;;;;;;;10.12;70.42;102576.44;5021730;28;20450;-78
2023/09/25 01:05:09;;;;;;;2.08;0.50;;;;;;;10.13;70.81;102585.16;5025780;28;20042;-77
2023/09/25 01:07:36;;;;;;;2.50;0.80;;;;;;;10.11;70.73;102569.47;5026513;28;20103;-78
2023/09/25 01:10:09;;;;;;;3.05;0.75;;;;;;;10.10;70.67;102567.75;5023268;28;20064;-78
2023/09/25 01:12:37;;;;;;;4.85;0.57;;;;;;;10.09;70.57;102576.41;5026338;28;20083;-78
2023/09/25 01:15:04;;;;;;;5.82;0.90;;;;;;;10.07;70.89;102565.06;5031501;28;20049;-78
2023/09/25 01:17:32;;;;;;;1.83;0.70;;;;;;;10.06;70.73;102567.66;5028082;28;20049;-78
2023/09/25 01:19:59;;;;;;;2.88;0.88;;;;;;;9.99;71.16;102552.78;5032191;28;20048;-78
2023/09/25 01:22:27;;;;;;;5.13;0.68;;;;;;;10.04;70.80;102566.75;5029454;28;20706;-78
2023/09/25 01:24:55;;;;;;;2.80;0.88;;;;;;;10.02;70.95;102553.72;5027879;28;20125;-77
2023/09/25 01:27:21;;;;;;;2.58;0.77;;;;;;;10.03;71.02;102557.19;5022882;28;20054;-77
2023/09/25 01:29:49;;;;;;;3.40;0.80;;;;;;;10.01;71.08;102554.53;5024843;28;20046;-76
2023/09/25 01:32:15;;;;;;;3.45;0.75;;;;;;;10.00;71.18;102550.19;5022085;28;20137;-78
2023/09/25 01:34:43;;;;;;;1.92;0.70;;;;;;;10.00;71.28;102562.38;5024580;28;20132;-77
2023/09/25 01:37:11;;;;;;;2.03;0.63;;;;;;;10.00;70.96;102565.00;5023692;28;20452;-76
2023/09/25 01:39:40;;;;;;;3.67;0.77;;;;;;;9.99;71.37;102561.50;5023962;28;20053;-76
2023/09/25 01:42:07;;;;;;;3.30;1.50;;;;;;;10.00;71.37;102567.59;5022146;28;20128;-77
2023/09/25 01:44:34;;;;;;;4.70;0.95;;;;;;;9.99;71.34;102566.72;5021107;28;20042;-76
2023/09/25 01:47:01;;;;;;;3.17;0.70;;;;;;;9.98;71.25;102559.72;5023512;28;20054;-76
2023/09/25 01:49:30;;;;;;;2.97;0.68;;;;;;;9.98;71.69;102562.34;5020994;28;20052;-76
2023/09/25 01:51:57;;;;;;;3.85;1.15;;;;;;;9.99;71.66;102563.22;5022079;28;20104;-77
2023/09/25 01:54:24;;;;;;;4.47;0.73;;;;;;;9.98;71.63;102562.34;5017943;28;20695;-76
2023/09/25 01:56:52;;;;;;;4.50;0.68;;;;;;;9.98;71.73;102562.34;5022224;28;20128;-76
2023/09/25 01:59:19;;;;;;;4.18;0.60;;;;;;;9.97;71.71;102563.22;5021245;28;20055;-76
2023/09/25 02:01:46;;;;;;;7.32;0.93;;;;;;;9.97;71.73;102570.16;5023863;28;20236;-75
2023/09/25 02:04:13;;;;;;;4.75;0.68;;;;;;;9.96;71.86;102577.13;5026328;28;20396;-76
2023/09/25 02:06:40;;;;;;;3.72;0.98;;;;;;;9.95;71.89;102572.75;5024419;28;20049;-75
2023/09/25 02:09:07;;;;;;;3.40;0.98;;;;;;;9.94;71.62;102578.84;5022377;28;20103;-76
2023/09/25 02:11:33;;;;;;;4.13;0.98;;;;;;;9.91;71.68;102579.66;5021480;28;20056;-76
2023/09/25 02:14:02;;;;;;;7.43;1.25;;;;;;;9.91;72.14;102587.50;5019086;28;20491;-76
2023/09/25 02:16:29;;;;;;;1.60;0.65;;;;;;;9.91;72.36;102587.50;5009062;28;20038;-75
2023/09/25 02:18:56;;;;;;;3.20;0.80;;;;;;;9.93;72.13;102584.03;5019452;28;20052;-76
2023/09/25 02:21:23;;;;;;;4.85;1.10;;;;;;;9.93;72.16;102584.91;5021335;28;20100;-75
2023/09/25 02:23:50;;;;;;;3.72;0.75;;;;;;;9.94;72.28;102588.41;5021027;28;20057;-75
2023/09/25 02:26:17;;;;;;;4.75;0.90;;;;;;;9.94;72.48;102585.81;5024683;28;20045;-76
2023/09/25 02:28:44;;;;;;;4.20;0.90;;;;;;;9.93;72.41;102587.50;5020728;28;20041;-76
2023/09/25 02:31:13;;;;;;;5.03;0.65;;;;;;;9.94;72.48;102584.06;5024676;28;20056;-76
2023/09/25 02:33:40;;;;;;;3.08;0.57;;;;;;;9.95;72.39;102592.75;5017462;28;20041;-75
2023/09/25 02:36:09;;;;;;;4.07;0.70;;;;;;;9.94;72.54;102591.03;5015054;28;20061;-75
2023/09/25 02:38:36;;;;;;;2.75;0.68;;;;;;;9.91;72.42;102586.63;5021581;28;20061;-75
2023/09/25 02:41:03;;;;;;;1.55;0.77;;;;;;;9.94;72.76;102586.66;5021118;28;20041;-75
2023/09/25 02:43:30;;;;;;;3.17;0.80;;;;;;;9.93;72.84;102582.28;5022118;28;20049;-74
2023/09/25 02:45:57;;;;;;;3.33;0.70;;;;;;;9.94;72.85;102581.44;5022262;28;20050;-75
2023/09/25 02:48:25;;;;;;;2.78;1.08;;;;;;;9.95;72.71;102580.56;5025252;28;20387;-75
2023/09/25 02:50:52;;;;;;;4.00;1.08;;;;;;;9.94;72.94;102583.19;5021547;28;20046;-75
2023/09/25 02:53:19;;;;;;;6.57;1.10;;;;;;;9.95;72.64;102585.81;5020863;28;20051;-74
2023/09/25 02:55:50;;;;;;;2.30;0.93;;;;;;;9.95;73.19;102582.31;5018683;28;20570;-74
2023/09/25 02:58:17;;;;;;;5.72;0.70;;;;;;;9.97;73.01;102588.44;5019995;28;20091;-74
2023/09/25 03:00:45;;;;;;;2.97;0.70;;;;;;;9.96;72.72;102584.97;5015525;28;20041;-74
2023/09/25 03:03:14;;;;;;;2.53;0.60;;;;;;;9.97;73.23;102591.94;5022842;28;20050;-74
2023/09/25 03:05:42;;;;;;;3.60;0.80;;;;;;;9.97;72.96;102591.94;5017679;28;20140;-74
2023/09/25 03:08:09;;;;;;;4.40;1.00;;;;;;;9.99;73.39;102584.09;5021094;28;20100;-74
2023/09/25 03:10:36;;;;;;;2.50;0.90;;;;;;;9.99;73.51;102585.00;5018976;28;20053;-74
2023/09/25 03:13:02;;;;;;;3.20;1.00;;;;;;;9.99;73.36;102582.38;5017410;28;20463;-74
2023/09/25 03:15:30;;;;;;;2.40;0.70;;;;;;;9.99;73.39;102585.00;5015172;28;20045;-74
2023/09/25 03:17:56;;;;;;;3.95;0.90;;;;;;;9.96;73.32;102584.97;5021326;28;20058;-74
2023/09/25 03:20:24;;;;;;;4.72;0.95;;;;;;;10.00;73.45;102597.19;5019468;28;20076;-73
2023/09/25 03:22:54;;;;;;;5.15;1.95;;;;;;;10.00;73.26;102589.34;5015901;28;20045;-73
2023/09/25 03:25:21;;;;;;;4.05;0.70;;;;;;;10.00;73.17;102584.13;5017131;28;20072;-74
2023/09/25 03:27:49;;;;;;;4.90;0.80;;;;;;;10.01;73.44;102583.25;5016087;28;20050;-74
2023/09/25 03:30:17;;;;;;;5.32;1.00;;;;;;;10.01;73.35;102582.38;5017991;28;20054;-74
2023/09/25 03:32:44;;;;;;;2.28;0.75;;;;;;;10.02;73.56;102578.94;5020685;28;20042;-73
2023/09/25 03:35:11;;;;;;;7.50;0.90;;;;;;;10.04;73.78;102574.59;5012510;28;20053;-74
2023/09/25 03:37:38;;;;;;;3.50;0.82;;;;;;;10.03;73.56;102571.13;5015858;28;20050;-73
2023/09/25 03:40:08;;;;;;;3.85;0.80;;;;;;;10.02;73.15;102568.50;5021848;28;20046;-73
2023/09/25 03:42:36;;;;;;;5.15;1.15;;;;;;;10.05;73.65;102573.75;5016392;28;20144;-74
2023/09/25 03:45:03;;;;;;;2.63;1.60;;;;;;;10.02;73.06;102569.38;5013306;28;20045;-74
2023/09/25 03:47:30;;;;;;;2.75;0.70;;;;;;;10.03;73.29;102565.91;5020502;28;20056;-75
2023/09/25 03:49:57;;;;;;;4.82;0.65;;;;;;;10.05;73.42;102574.63;5022599;28;20048;-76
2023/09/25 03:52:24;;;;;;;2.58;0.75;;;;;;;10.05;73.56;102573.75;5018829;28;20486;-76
2023/09/25 03:54:51;;;;;;;4.50;1.08;;;;;;;10.05;73.76;102577.25;5016312;28;20103;-77
2023/09/25 03:57:19;;;;;;;5.25;0.80;;;;;;;10.03;73.39;102576.34;5019975;28;20752;-78
2023/09/25 03:59:46;;;;;;;3.35;1.00;;;;;;;10.06;73.71;102571.16;5019555;28;20510;-77
2023/09/25 04:02:13;;;;;;;2.22;0.50;;;;;;;10.05;73.68;102566.78;5016004;28;20042;-78
2023/09/25 04:04:40;;;;;;;2.55;0.77;;;;;;;10.07;74.05;102564.19;5022722;28;20055;-76
2023/09/25 04:07:07;;;;;;;2.33;0.70;;;;;;;10.08;74.13;102566.84;5015301;28;20049;-73
2023/09/25 04:09:34;;;;;;;3.17;0.70;;;;;;;10.09;74.05;102581.63;5016098;28;20069;-74
2023/09/25 04:12:01;;;;;;;3.20;0.70;;;;;;;10.07;73.78;102578.13;5015027;28;20071;-75
2023/09/25 04:14:31;;;;;;;5.30;0.77;;;;;;;10.10;73.83;102583.41;5018742;28;20410;-74
2023/09/25 04:16:58;;;;;;;1.83;0.60;;;;;;;10.09;73.95;102584.25;5013475;28;21433;-75
2023/09/25 04:19:25;;;;;;;3.65;0.80;;;;;;;10.10;74.18;102588.63;5018476;28;20046;-75
2023/09/25 04:21:52;;;;;;;4.38;0.60;;;;;;;10.11;74.51;102585.16;5020587;28;20060;-74
2023/09/25 04:24:19;;;;;;;3.33;0.50;;;;;;;10.12;74.26;102589.50;5016937;28;20046;-75
2023/09/25 04:26:46;;;;;;;3.13;0.55;;;;;;;10.12;74.28;102592.13;5014428;28;20072;-76
2023/09/25 04:29:17;;;;;;;5.95;1.42;;;;;;;10.14;74.14;102599.97;5019443;28;20414;-76
2023/09/25 04:31:46;;;;;;;6.07;1.23;;;;;;;10.15;74.11;102586.06;5011857;28;20107;-75
2023/09/25 04:34:13;;;;;;;2.67;0.90;;;;;;;10.16;74.38;102597.38;5016250;28;20041;-74
2023/09/25 04:36:40;;;;;;;2.03;0.63;;;;;;;10.17;74.47;102601.75;5013401;28;20053;-74
2023/09/25 04:39:10;;;;;;;3.75;0.50;;;;;;;10.18;74.38;102595.66;5017851;28;20057;-74
2023/09/25 04:41:37;;;;;;;2.33;0.73;;;;;;;10.19;74.41;102598.31;5014183;28;20790;-75
2023/09/25 04:44:04;;;;;;;2.17;0.50;;;;;;;10.20;74.65;102605.28;5013237;28;20049;-75
2023/09/25 04:46:31;;;;;;;3.35;0.50;;;;;;;10.21;74.51;102603.53;5016001;28;20848;-74
2023/09/25 04:49:01;;;;;;;4.28;0.60;;;;;;;10.20;74.63;102599.19;5019401;28;20045;-75
2023/09/25 04:51:28;;;;;;;3.92;0.60;;;;;;;10.21;74.63;102596.56;5018610;28;20054;-74
2023/09/25 04:53:55;;;;;;;2.35;0.50;;;;;;;10.24;74.37;102600.97;5014719;28;20151;-79
2023/09/25 04:56:22;;;;;;;7.65;1.00;;;;;;;10.25;74.73;102595.78;5023082;28;20042;-78
2023/09/25 04:58:49;;;;;;;3.65;0.70;;;;;;;10.26;74.71;102594.91;5017982;28;20050;-79
2023/09/25 05:01:16;;;;;;;5.00;0.65;;;;;;;10.27;74.82;102595.81;5028028;28;20163;-79
2023/09/25 05:03:43;;;;;;;2.78;0.40;;;;;;;10.26;74.92;102605.34;5016724;28;20053;-79
2023/09/25 05:06:11;;;;;;;2.50;0.50;;;;;;;10.30;74.75;102598.44;5024195;28;20052;-78
2023/09/25 05:08:39;;;;;;;3.42;0.60;;;;;;;10.31;74.95;102592.38;5022742;28;20046;-79
2023/09/25 05:11:06;;;;;;;1.45;0.45;;;;;;;10.32;75.00;102595.00;5023244;28;20108;-78
2023/09/25 05:13:33;;;;;;;1.70;0.50;;;;;;;10.35;74.85;102592.41;5017045;28;20764;-78
2023/09/25 05:16:02;;;;;;;2.38;0.60;;;;;;;10.37;75.17;102589.84;5020182;28;20124;-76
2023/09/25 05:18:29;;;;;;;1.63;0.50;;;;;;;10.38;74.96;102588.97;5016307;28;20053;-75
2023/09/25 05:20:57;;;;;;;3.58;0.50;;;;;;;10.42;75.24;102587.28;5019226;28;20049;-75
2023/09/25 05:23:25;;;;;;;3.55;0.95;;;;;;;10.44;75.27;102594.25;5014147;28;20131;-75
2023/09/25 05:25:52;;;;;;;4.63;0.60;;;;;;;10.46;75.31;102591.69;5016444;28;20509;-75
2023/09/25 05:28:19;;;;;;;1.75;0.60;;;;;;;10.48;75.28;102593.44;5015318;28;20407;-75
2023/09/25 05:30:46;;;;;;;1.70;0.50;;;;;;;10.49;75.35;102592.56;5017384;28;20052;-75
2023/09/25 05:33:13;;;;;;;1.50;1.02;;;;;;;10.53;75.25;102603.94;5012779;28;20037;-75
2023/09/25 05:35:40;;;;;;;2.47;0.50;;;;;;;10.54;75.59;102601.34;5021607;28;20053;-74
2023/09/25 05:38:07;;;;;;;1.20;0.60;;;;;;;10.58;75.25;102599.63;5015114;28;20067;-75
2023/09/25 05:40:35;;;;;;;2.90;1.35;;;;;;;10.62;75.44;102597.97;5012549;28;20049;-74
2023/09/25 05:43:02;;;;;;;4.05;0.60;;;;;;;10.63;75.67;102599.69;5017114;28;20049;-73
2023/09/25 05:45:29;;;;;;;3.53;0.60;;;;;;;10.67;75.68;102601.47;5010660;28;20073;-74
2023/09/25 05:47:56;;;;;;;2.42;0.80;;;;;;;10.70;75.78;102596.28;5013422;28;20049;-75
2023/09/25 05:50:25;;;;;;;3.55;0.50;;;;;;;10.73;75.96;102588.47;5016706;28;20049;-74
2023/09/25 05:52:51;;;;;;;6.20;0.70;;;;;;;10.75;75.72;102585.00;5013455;28;20095;-74
2023/09/25 05:55:20;;;;;;;2.20;0.50;;;;;;;10.77;75.98;102582.41;5016154;28;20053;-75
2023/09/25 05:57:48;;;;;;;6.85;1.10;;;;;;;10.84;75.99;102586.81;5018527;28;20075;-75
2023/09/25 06:00:18;;;;;;;2.78;0.60;;;;;;;10.87;76.23;102589.50;5018687;28;20038;-74
2023/09/25 06:02:45;;;;;;;4.85;0.63;;;;;;;10.91;76.31;102588.66;5018449;28;20049;-74
2023/09/25 06:05:12;;;;;;;2.53;0.70;;;;;;;10.94;76.19;102585.19;5021842;28;20046;-77
2023/09/25 06:07:39;;;;;;;2.13;0.60;;;;;;;10.97;76.08;102585.22;5020565;28;20046;-76
2023/09/25 06:10:08;;;;;;;2.80;0.60;;;;;;;11.01;76.38;102598.34;5020801;28;20047;-76
2023/09/25 06:12:35;;;;;;;3.10;0.50;;;;;;;11.06;76.44;102589.66;5024239;28;20037;-76
2023/09/25 06:15:05;;;;;;;1.85;0.68;;;;;;;11.09;76.62;102587.94;5018516;28;20100;-75
2023/09/25 06:17:32;;;;;;;3.22;0.45;;;;;;;11.04;76.63;102581.78;5023016;28;20076;-76
2023/09/25 06:19:59;;;;;;;5.22;0.70;;;;;;;11.16;76.67;102596.72;5021370;28;21141;-77
2023/09/25 06:22:26;;;;;;;3.70;0.60;;;;;;;11.17;76.90;102585.38;5020159;28;20056;-76
2023/09/25 06:24:53;;;;;;;2.97;0.60;;;;;;;11.21;76.88;102590.66;5018683;28;20057;-77
2023/09/25 06:27:20;;;;;;;6.03;0.50;;;;;;;11.28;77.12;102604.66;5027302;28;20049;-87
2023/09/25 06:29:47;;;;;;;3.55;1.10;;;;;;;11.31;76.94;102602.06;5021751;28;20068;-87
2023/09/25 06:32:15;;;;;;;1.67;0.50;;;;;;;11.38;77.33;102600.34;5022416;28;20502;-87
2023/09/25 06:34:42;;;;;;;4.10;0.80;;;;;;;11.41;76.95;102609.13;5023636;28;20080;-87
2023/09/25 06:37:09;;;;;;;6.40;0.60;;;;;;;11.41;77.48;102592.53;5024498;28;20053;-87
2023/09/25 06:39:36;;;;;;;1.10;0.50;;;;;;;11.51;77.47;102611.81;5025090;28;20068;-86
2023/09/25 06:42:03;;;;;;;5.38;0.50;;;;;;;11.56;77.78;102610.09;5026579;28;20837;-86
2023/09/25 06:44:30;;;;;;;1.80;0.68;;;;;;;11.60;77.80;102610.13;5021260;28;20107;-80
2023/09/25 06:46:57;;;;;;;3.08;0.60;;;;;;;11.67;77.73;102608.44;5024702;28;20049;-78
2023/09/25 06:49:25;;;;;;;1.30;0.47;;;;;;;11.71;77.75;102608.44;5020720;28;20045;-77
2023/09/25 06:51:52;;;;;;;2.88;0.90;;;;;;;11.77;77.72;102593.66;5026404;28;20222;-77
2023/09/25 06:54:19;;;;;;;1.85;0.47;;;;;;;11.82;77.80;102603.28;5021217;28;20052;-77
2023/09/25 06:56:48;;;;;;;2.05;0.50;;;;;;;11.88;77.34;102603.34;5023140;28;20042;-78
2023/09/25 06:59:15;;;;;;;1.55;0.50;;;;;;;11.94;77.80;102602.50;5022800;28;20491;-78
2023/09/25 07:01:41;;;;;;;6.40;0.68;;;;;;;11.99;77.66;102613.88;5021300;28;20052;-78
2023/09/25 07:04:08;;;;;;;3.85;0.50;;;;;;;12.05;77.44;102613.91;5018006;28;20045;-78
2023/09/25 07:06:36;;;;;;;5.20;0.85;;;;;;;12.09;77.59;102618.28;5024444;28;20084;-78
2023/09/25 07:09:04;;;;;;;2.15;0.73;;;;;;;12.11;77.54;102606.06;5020545;28;20046;-78
2023/09/25 07:11:30;;;;;;;2.35;0.40;;;;;;;12.26;77.51;102622.72;5021992;28;20056;-78
2023/09/25 07:13:57;;;;;;;2.72;0.90;;;;;;;12.30;77.51;102624.50;5025214;28;20051;-79
2023/09/25 07:16:25;;;;;;;2.53;0.50;;;;;;;12.40;77.34;102636.75;5025241;28;20371;-79
2023/09/25 07:18:52;;;;;;;5.15;0.63;;;;;;;12.47;77.06;102627.19;5022156;28;20049;-77
2023/09/25 07:21:19;;;;;;;4.10;0.50;;;;;;;12.54;76.98;102624.56;5028557;28;20057;-79
2023/09/25 07:23:48;;;;;;;1.25;0.43;;;;;;;12.59;76.91;102616.72;5023892;28;20041;-82
2023/09/25 07:26:17;;;;;;;4.50;0.47;;;;;;;12.71;76.60;102627.25;5026409;28;20062;-81
2023/09/25 07:28:47;;;;;;;3.60;0.57;;;;;;;12.80;76.89;102623.75;5027837;28;20442;-78
2023/09/25 07:31:19;;;;;;;1.60;0.40;;;;;;;12.89;76.68;102617.66;5022294;28;20076;-77
2023/09/25 07:33:46;;;;;;;2.13;0.60;;;;;;;12.98;76.18;102620.31;5026844;28;20045;-77
2023/09/25 07:36:18;;;;;;;1.45;0.70;;;;;;;13.07;76.02;102619.44;5018919;28;20044;-84
2023/09/25 07:38:45;;;;;;;3.85;0.50;;;;;;;13.13;75.81;102607.19;5027625;28;20042;-83
2023/09/25 07:41:13;;;;;;;0.50;0.38;;;;;;;13.26;75.82;102608.97;5025649;28;20061;-81
2023/09/25 07:43:40;;;;;;;2.33;0.40;;;;;;;13.38;75.46;102609.84;5030792;28;20073;-84
2023/09/25 07:46:07;;;;;;;4.55;0.50;;;;;;;13.44;74.97;102600.22;5026525;28;20041;-83
2023/09/25 07:48:37;;;;;;;2.55;0.40;;;;;;;13.56;74.79;102609.81;5022826;28;20096;-85
2023/09/25 07:51:05;;;;;;;3.38;0.40;;;;;;;13.66;74.33;102601.06;5026410;28;20045;-91
2023/09/25 07:53:32;;;;;;;2.60;0.32;;;;;;;13.77;73.99;102597.50;5028726;28;20056;-79
2023/09/25 07:55:59;;;;;;;5.65;0.40;;;;;;;13.84;74.15;102596.63;5024647;28;20128;-82
2023/09/25 07:58:28;;;;;;;3.22;0.43;;;;;;;13.95;73.37;102602.72;5025350;28;20056;-89
2023/09/25 08:01:00;;;;;;;6.75;0.50;;;;;;;14.04;72.90;102597.44;5027802;28;20049;-83
2023/09/25 08:03:27;;;;;;;2.67;0.45;;;;;;;14.12;72.73;102584.28;5031366;28;20045;-81
2023/09/25 08:05:54;;;;;;;1.38;0.40;;;;;;;14.25;73.13;102596.47;5029112;28;20049;-79
2023/09/25 08:08:21;;;;;;;1.25;0.40;;;;;;;14.27;72.66;102578.06;5025509;28;20718;-85
2023/09/25 08:10:47;;;;;;;3.53;0.47;;;;;;;14.46;72.34;102595.50;5029284;28;20482;-85
2023/09/25 08:13:15;;;;;;;4.93;1.40;;;;;;;14.53;71.83;102593.72;5026879;28;20055;-81
2023/09/25 08:15:43;;;;;;;5.22;0.40;;;;;;;14.62;71.99;102597.16;5024546;28;20091;-80
2023/09/25 08:18:11;;;;;;;3.50;0.40;;;;;;;14.71;71.72;102590.97;5024250;28;20051;-84
2023/09/25 08:20:39;;;;;;;6.63;0.50;;;;;;;14.77;71.12;102588.31;5025501;28;20513;-81
2023/09/25 08:23:07;;;;;;;2.25;0.40;;;;;;;14.88;70.53;102590.84;5026018;28;20046;-87
2023/09/25 08:25:34;;;;;;;0.65;0.25;;;;;;;14.97;70.20;102592.53;5029318;28;20049;-82
2023/09/25 08:28:01;;;;;;;2.90;0.30;;;;;;;15.02;69.71;102591.63;5022044;28;20047;-81
2023/09/25 08:30:28;;;;;;;3.70;0.30;;;;;;;15.11;69.62;102589.81;5024081;28;20050;-80
2023/09/25 08:32:56;;;;;;;1.45;0.38;;;;;;;15.17;69.06;102592.38;5022637;28;20046;-80
2023/09/25 08:35:23;;;;;;;2.03;0.40;;;;;;;15.18;69.30;102589.75;5028705;28;20055;-81
2023/09/25 08:37:50;;;;;;;3.22;0.40;;;;;;;15.28;69.17;102585.25;5020841;28;20095;-84
2023/09/25 08:40:17;;;;;;;2.67;0.30;;;;;;;15.36;69.05;102601.00;5025876;28;20132;-82
2023/09/25 08:42:46;;;;;;;2.17;0.63;;;;;;;15.41;68.56;102588.66;5022308;28;20050;-82
2023/09/25 08:45:14;;;;;;;5.75;0.40;;;;;;;15.44;68.61;102600.03;5024244;28;20125;-78
2023/09/25 08:47:43;;;;;;;1.17;0.30;;;;;;;15.49;68.07;102574.53;5028038;28;20199;-81
2023/09/25 08:50:12;;;;;;;2.65;0.30;;;;;;;15.55;67.91;102570.09;5024958;28;20048;-80
2023/09/25 08:52:41;;;;;;;4.18;0.57;;;;;;;15.64;67.99;102583.16;5017087;28;20073;-79
2023/09/25 08:55:09;;;;;;;3.45;0.55;;;;;;;15.68;67.41;102582.25;5024057;28;20683;-77
2023/09/25 08:57:37;;;;;;;5.43;0.30;;;;;;;15.70;67.04;102575.22;5024746;28;20056;-82
2023/09/25 09:00:11;;;;;;;1.40;0.20;;;;;;;15.77;67.21;102584.81;5027347;28;20053;-81
2023/09/25 09:02:40;;;;;;;4.17;0.93;;;;;;;15.80;66.72;102576.88;5023671;28;20050;-82
2023/09/25 09:05:09;;;;;;;2.25;0.40;;;;;;;15.83;66.55;102575.97;5028452;28;20306;-80
2023/09/25 09:07:37;;;;;;;1.27;0.28;;;;;;;15.90;66.20;102577.63;5024028;28;20053;-80
2023/09/25 09:10:04;;;;;;;1.23;0.38;;;;;;;15.92;65.41;102582.00;5015547;28;20524;-74
2023/09/25 09:12:37;;;;;;;1.17;0.30;;;;;;;15.98;65.23;102582.81;5019423;28;20052;-73
2023/09/25 09:15:05;;;;;;;0.95;0.30;;;;;;;16.00;65.18;102566.09;5014899;28;20046;-73
2023/09/25 09:17:32;;;;;;;2.20;0.95;;;;;;;16.06;64.80;102575.69;5021740;28;20050;-75
2023/09/25 09:19:59;;;;;;;2.17;0.30;;;;;;;16.06;64.28;102560.75;5017820;28;20052;-75
2023/09/25 09:22:27;;;;;;;0.82;0.20;;;;;;;16.04;64.57;102559.00;5018339;28;20049;-75
2023/09/25 09:24:56;;;;;;;2.83;0.30;;;;;;;16.13;64.24;102567.66;5016573;28;20140;-75
2023/09/25 09:27:26;;;;;;;1.48;0.30;;;;;;;16.16;63.74;102564.97;5018436;28;20160;-75
2023/09/25 09:29:53;;;;;;;1.58;0.35;;;;;;;16.21;63.38;102567.56;5013823;28;20574;-76
2023/09/25 09:32:20;;;;;;;0.40;0.20;;;;;;;16.26;63.36;102565.75;5019710;28;20042;-75
2023/09/25 09:34:49;;;;;;;2.45;0.30;;;;;;;16.31;63.08;102568.34;5019954;28;20050;-74
2023/09/25 09:37:18;;;;;;;0.95;0.20;;;;;;;16.34;62.79;102571.78;5025198;28;20051;-75
2023/09/25 09:39:52;;;;;;;1.52;0.20;;;;;;;16.36;62.29;102562.09;5016214;28;20042;-76
2023/09/25 09:42:24;;;;;;;1.83;0.40;;;;;;;16.38;62.55;102556.78;5029149;28;20561;-77
2023/09/25 09:44:51;;;;;;;2.15;0.30;;;;;;;16.36;62.67;102545.38;5022677;28;20153;-76
2023/09/25 09:47:21;;;;;;;1.23;0.30;;;;;;;16.44;62.23;102561.09;5022797;28;20326;-76
2023/09/25 09:49:49;;;;;;;1.15;0.30;;;;;;;16.43;61.64;102547.06;5021035;28;20049;-75
2023/09/25 09:52:19;;;;;;;2.00;0.65;;;;;;;16.46;61.91;102554.06;5016538;28;20052;-76
2023/09/25 09:54:50;;;;;;;1.23;0.25;;;;;;;16.50;61.90;102553.09;5016033;28;20050;-77
2023/09/25 09:57:21;;;;;;;3.38;0.70;;;;;;;16.50;61.38;102553.97;5020314;28;20061;-74
2023/09/25 09:59:49;;;;;;;1.50;0.30;;;;;;;16.54;61.50;102545.13;5023911;28;20066;-74
2023/09/25 10:02:17;;;;;;;3.45;0.40;;;;;;;16.59;61.35;102550.31;5019569;28;20381;-73
2023/09/25 10:04:45;;;;;;;0.95;0.55;;;;;;;16.62;61.55;102550.25;5023920;28;20057;-74
2023/09/25 10:07:13;;;;;;;1.70;0.35;;;;;;;16.66;61.74;102551.13;5015964;28;20612;-73
2023/09/25 10:09:56;;;;;;;1.27;0.30;;;;;;;16.69;61.12;102544.00;5023538;28;20088;-73
2023/09/25 10:15:29;;;;;;;2.28;0.30;;;;;;;16.74;60.84;102546.59;5054807;27;20395;-73
2023/09/25 10:17:56;;;;;;;1.50;0.32;;;;;;;16.75;60.97;102549.19;5030853;28;20073;-75
2023/09/25 10:20:36;;;;;;;1.70;0.30;;;;;;;16.80;60.78;102546.53;5031338;28;20532;-72
2023/09/25 10:23:09;;;;;;;2.78;0.30;;;;;;;16.79;60.36;102548.28;5034284;28;20060;-76
2023/09/25 10:25:47;;;;;;;0.57;0.20;;;;;;;16.83;60.48;102546.47;5027563;28;20046;-73
2023/09/25 10:28:19;;;;;;;2.28;0.30;;;;;;;16.82;59.76;102550.88;5026978;28;20552;-73
2023/09/25 10:30:48;;;;;;;1.08;0.30;;;;;;;16.86;59.79;102547.28;5029830;28;20049;-72
2023/09/25 10:33:16;;;;;;;1.15;0.20;;;;;;;16.86;60.25;102542.00;5030994;28;20057;-73
2023/09/25 10:35:47;;;;;;;0.60;0.22;;;;;;;16.92;59.77;102553.38;5027972;28;20048;-72
2023/09/25 10:38:17;;;;;;;0.43;0.13;;;;;;;16.93;59.87;102561.22;5025188;28;20045;-73
2023/09/25 10:40:45;;;;;;;1.25;0.22;;;;;;;16.95;59.24;102561.22;5032478;28;20050;-73
2023/09/25 10:43:12;;;;;;;1.58;0.30;;;;;;;16.95;59.10;102562.09;5027790;28;20049;-72
2023/09/25 10:45:39;;;;;;;0.98;0.73;;;;;;;16.98;59.27;102558.53;5034866;28;20053;-77
2023/09/25 10:48:08;;;;;;;2.90;0.28;;;;;;;16.99;59.18;102552.34;5029731;28;20041;-80
2023/09/25 10:50:37;;;;;;;0.80;0.20;;;;;;;17.01;59.27;102566.41;5030533;28;20053;-80
2023/09/25 10:53:06;;;;;;;2.42;0.20;;;;;;;17.01;58.86;102548.78;5031589;28;20092;-81
2023/09/25 10:55:33;;;;;;;2.67;0.28;;;;;;;17.02;59.25;102552.31;5035885;28;20128;-80
2023/09/25 10:58:01;;;;;;;1.25;0.20;;;;;;;17.07;59.44;102561.00;5038481;28;20514;-78
2023/09/25 11:00:28;;;;;;;2.17;0.20;;;;;;;17.07;59.21;102555.72;5040357;28;20343;-80
2023/09/25 11:02:55;;;;;;;1.95;0.40;;;;;;;17.10;59.54;102566.22;5029332;28;20118;-76
2023/09/25 11:05:24;;;;;;;1.40;0.20;;;;;;;17.12;59.15;102564.44;5032008;28;20050;-77
2023/09/25 11:07:51;;;;;;;0.40;0.20;;;;;;;17.11;59.55;102560.06;5029945;28;20136;-79
2023/09/25 11:10:18;;;;;;;1.75;0.45;;;;;;;17.14;59.55;102554.75;5025434;28;20582;-79
2023/09/25 11:12:47;;;;;;;0.95;0.25;;;;;;;17.17;58.93;102552.03;5039506;28;20048;-79
2023/09/25 11:15:17;;;;;;;2.15;0.20;;;;;;;17.16;59.12;102545.03;5035886;28;20531;-79
2023/09/25 11:17:46;;;;;;;0.75;0.25;;;;;;;17.21;58.66;102548.44;5035825;28;20067;-77
2023/09/25 11:20:15;;;;;;;2.45;0.30;;;;;;;17.19;58.41;102542.34;5031100;28;20706;-78
2023/09/25 11:22:43;;;;;;;1.23;0.20;;;;;;;17.22;58.29;102539.63;5032741;28;20126;-77
2023/09/25 11:25:15;;;;;;;1.27;0.20;;;;;;;17.24;58.83;102542.22;5021045;28;20060;-77
2023/09/25 11:27:51;;;;;;;1.45;0.30;;;;;;;17.22;58.44;102544.91;5021341;28;20053;-78
2023/09/25 11:30:18;;;;;;;0.63;0.20;;;;;;;17.25;58.16;102549.28;5023412;28;20139;-80
2023/09/25 11:32:45;;;;;;;0.60;0.20;;;;;;;17.22;58.07;102526.44;5018991;28;20513;-77